Aleksandrovskoe, Russia
Current Conditions -  °F | °C
As of 3:00 AM on Saturday 22 Nov 2014 (Local Time) from USNN Reporting Station
Blowing Snow Blowing Snow  
Wind Chill: -13°   Ceiling: Unl
Heat Index:   Visibility: 6mi
Dew Point: -4°   Wind: 11mph
Humidity: 72%   Direction: 270°W
Pressure: 29.65"   Gusts: 20mph
Location:  60.43°N, 77.87°E
Report Text: USNN 212000Z 27005G09MPS 9999 DRSN SCT021 M16/M20 Q1004 NOSIGRMK QFE748 2139//52
Loading
Personal Weather Stations






























Interactive Weather Map New forecast layout! Learn more

10-Day Weather Forecast

Advertisements
Track Severe Weather on mobile